Time;durP1;ratioP1;P1;durP2;ratioP2;P2;SDS_P1;SDS_P2;PMS_P1;PMS_P2;Temp;Humidity;BMP_temperature;BMP_pressure;BME280_temperature;BME280_humidity;BME280_pressure;Samples;Min_cycle;Max_cycle;Signal;HPM_P1;HPM_P2
2021/06/09 00:00:43;;;;;;;17.83;14.95;;;;;;;;;;1493099;39;20034;-60
2021/06/09 00:01:43;;;;;;;21.08;16.08;;;;;;;;;;1492952;39;20380;-62
2021/06/09 00:02:45;;;;;;;16.85;15.13;;;;;;;;;;1493008;39;20116;-62
2021/06/09 00:03:47;;;;;;;20.40;15.43;;;;;;;;;;1493005;39;20105;-62
2021/06/09 00:04:48;;;;;;;17.98;16.02;;;;;;;;;;1493025;39;20115;-62
2021/06/09 00:05:50;;;;;;;20.10;15.85;;;;;;;;;;1492915;39;20368;-61
2021/06/09 00:06:51;;;;;;;18.80;15.50;;;;;;;;;;1492866;39;20031;-62
2021/06/09 00:07:52;;;;;;;17.23;15.52;;;;;;;;;;1492980;39;20039;-62
2021/06/09 00:08:54;;;;;;;17.77;15.90;;;;;;;;;;1492708;39;20042;-61
2021/06/09 00:09:54;;;;;;;20.90;15.02;;;;;;;;;;1492993;39;20026;-62
2021/06/09 00:10:56;;;;;;;18.80;15.88;;;;;;;;;;1492777;39;20302;-61
2021/06/09 00:11:57;;;;;;;17.88;15.43;;;;;;;;;;1492796;39;20431;-62
2021/06/09 00:12:58;;;;;;;18.10;16.05;;;;;;;;;;1492778;39;20092;-62
2021/06/09 00:13:59;;;;;;;19.30;15.43;;;;;;;;;;1492964;39;20036;-60
2021/06/09 00:15:01;;;;;;;19.92;14.82;;;;;;;;;;1493161;39;20389;-62
2021/06/09 00:16:10;;;;;;;18.05;15.65;;;;;;;;;;1492775;39;20426;-61
2021/06/09 00:17:12;;;;;;;21.20;15.40;;;;;;;;;;1492851;39;20349;-60
2021/06/09 00:18:13;;;;;;;18.50;14.95;;;;;;;;;;1492803;39;20024;-62
2021/06/09 00:19:16;;;;;;;18.80;14.70;;;;;;;;;;1492857;39;20055;-62
2021/06/09 00:20:21;;;;;;;19.15;14.27;;;;;;;;;;1492798;39;20024;-62
2021/06/09 00:21:22;;;;;;;19.17;14.73;;;;;;;;;;1492861;39;20063;-62
2021/06/09 00:22:23;;;;;;;19.30;16.25;;;;;;;;;;1492799;39;20028;-62
2021/06/09 00:23:27;;;;;;;17.15;15.35;;;;;;;;;;1492830;39;20040;-60
2021/06/09 00:24:28;;;;;;;19.33;16.42;;;;;;;;;;1492792;39;20028;-62
2021/06/09 00:25:30;;;;;;;17.83;15.93;;;;;;;;;;1492986;39;20067;-62
2021/06/09 00:26:31;;;;;;;18.95;15.52;;;;;;;;;;1492805;39;20379;-62
2021/06/09 00:27:46;;;;;;;16.88;15.07;;;;;;;;;;1492977;39;20078;-62
2021/06/09 00:28:47;;;;;;;22.38;16.30;;;;;;;;;;1492907;39;20076;-62
2021/06/09 00:29:49;;;;;;;17.60;15.43;;;;;;;;;;1492944;39;20040;-62
2021/06/09 00:30:50;;;;;;;19.20;16.52;;;;;;;;;;1492930;39;20020;-62
2021/06/09 00:32:01;;;;;;;19.13;15.43;;;;;;;;;;1492960;39;20035;-62
2021/06/09 00:33:02;;;;;;;19.08;16.00;;;;;;;;;;1492811;39;20028;-60
2021/06/09 00:34:04;;;;;;;17.42;15.07;;;;;;;;;;1492812;39;20046;-62
2021/06/09 00:35:07;;;;;;;18.75;16.25;;;;;;;;;;1492692;39;20334;-62
2021/06/09 00:36:08;;;;;;;20.40;15.85;;;;;;;;;;1492721;39;20075;-62
2021/06/09 00:37:09;;;;;;;19.05;15.65;;;;;;;;;;1492702;39;20028;-61
2021/06/09 00:38:11;;;;;;;19.35;16.92;;;;;;;;;;1492629;39;20032;-61
2021/06/09 00:39:12;;;;;;;20.80;16.63;;;;;;;;;;1492734;39;20050;-62
2021/06/09 00:40:14;;;;;;;23.40;17.27;;;;;;;;;;1492678;39;20032;-60
2021/06/09 00:41:14;;;;;;;18.88;16.92;;;;;;;;;;1492922;39;20031;-61
2021/06/09 00:42:19;;;;;;;20.40;17.13;;;;;;;;;;1492923;39;20337;-62
2021/06/09 00:43:22;;;;;;;16.45;14.75;;;;;;;;;;1492915;39;20039;-62
2021/06/09 00:44:23;;;;;;;17.98;15.75;;;;;;;;;;1492853;39;20113;-62
2021/06/09 00:45:24;;;;;;;19.08;16.00;;;;;;;;;;1492914;39;20027;-62
2021/06/09 00:46:32;;;;;;;21.38;16.77;;;;;;;;;;1492688;39;20059;-62
2021/06/09 00:47:33;;;;;;;18.85;16.48;;;;;;;;;;1492912;39;20028;-62
2021/06/09 00:48:36;;;;;;;17.52;15.68;;;;;;;;;;1493032;39;20035;-61
2021/06/09 00:49:38;;;;;;;18.23;15.95;;;;;;;;;;1493482;39;20032;-62
2021/06/09 00:50:42;;;;;;;17.65;15.75;;;;;;;;;;1493530;39;20072;-62
2021/06/09 00:51:43;;;;;;;18.92;16.80;;;;;;;;;;1493400;39;20051;-60
2021/06/09 00:52:44;;;;;;;18.77;16.55;;;;;;;;;;1493523;39;20064;-62
2021/06/09 00:53:49;;;;;;;22.63;17.20;;;;;;;;;;1493314;39;20058;-62
2021/06/09 00:54:50;;;;;;;18.73;16.55;;;;;;;;;;1493488;39;20060;-60
2021/06/09 00:55:52;;;;;;;22.88;17.15;;;;;;;;;;1493387;39;20035;-62
2021/06/09 00:56:54;;;;;;;18.63;16.63;;;;;;;;;;1493217;39;20087;-61
2021/06/09 00:57:55;;;;;;;17.83;15.35;;;;;;;;;;1493257;39;20054;-62
2021/06/09 00:58:56;;;;;;;22.00;16.55;;;;;;;;;;1493242;39;20385;-61
2021/06/09 00:59:57;;;;;;;21.15;16.17;;;;;;;;;;1493362;39;20078;-60
2021/06/09 01:00:59;;;;;;;18.67;15.68;;;;;;;;;;1493323;39;20440;-60
2021/06/09 01:02:00;;;;;;;19.92;15.43;;;;;;;;;;1493331;39;20032;-62
2021/06/09 01:03:02;;;;;;;17.55;15.48;;;;;;;;;;1493496;39;20031;-60
2021/06/09 01:04:05;;;;;;;17.35;15.52;;;;;;;;;;1493245;39;20028;-62
2021/06/09 01:05:07;;;;;;;19.52;15.93;;;;;;;;;;1493251;39;20039;-60
2021/06/09 01:06:10;;;;;;;19.17;16.38;;;;;;;;;;1493464;39;20101;-62
2021/06/09 01:07:12;;;;;;;18.48;15.13;;;;;;;;;;1493484;39;20119;-60
2021/06/09 01:08:16;;;;;;;20.48;15.98;;;;;;;;;;1493229;39;20388;-61
2021/06/09 01:09:18;;;;;;;18.88;16.25;;;;;;;;;;1493271;39;20303;-60
2021/06/09 01:10:19;;;;;;;17.83;15.95;;;;;;;;;;1493496;39;20028;-62
2021/06/09 01:11:22;;;;;;;18.40;15.82;;;;;;;;;;1493252;39;20032;-61
2021/06/09 01:12:23;;;;;;;20.80;16.58;;;;;;;;;;1493344;39;20024;-61
2021/06/09 01:13:26;;;;;;;21.48;16.90;;;;;;;;;;1493426;39;20039;-62
2021/06/09 01:14:27;;;;;;;18.13;16.15;;;;;;;;;;1493202;39;20035;-62
2021/06/09 01:15:29;;;;;;;17.73;15.82;;;;;;;;;;1493226;39;20035;-62
2021/06/09 01:16:30;;;;;;;17.45;15.32;;;;;;;;;;1493255;39;20054;-62
2021/06/09 01:17:31;;;;;;;18.52;15.65;;;;;;;;;;1493239;39;20123;-61
2021/06/09 01:18:34;;;;;;;16.77;15.07;;;;;;;;;;1493280;39;20071;-62
2021/06/09 01:19:35;;;;;;;18.95;16.08;;;;;;;;;;1493472;39;20035;-62
2021/06/09 01:20:36;;;;;;;19.63;15.75;;;;;;;;;;1493441;39;20034;-61
2021/06/09 01:21:39;;;;;;;22.58;16.60;;;;;;;;;;1493249;39;20050;-62
2021/06/09 01:22:41;;;;;;;18.55;16.33;;;;;;;;;;1493352;39;20032;-61
2021/06/09 01:23:42;;;;;;;19.90;16.00;;;;;;;;;;1493433;39;20028;-61
2021/06/09 01:24:43;;;;;;;20.05;17.25;;;;;;;;;;1493246;39;20350;-60
2021/06/09 01:25:46;;;;;;;18.50;15.15;;;;;;;;;;1493299;39;20028;-62
2021/06/09 01:26:47;;;;;;;18.42;15.82;;;;;;;;;;1493383;39;20044;-61
2021/06/09 01:27:49;;;;;;;18.63;15.43;;;;;;;;;;1493248;39;20041;-61
2021/06/09 01:28:52;;;;;;;18.30;16.23;;;;;;;;;;1493420;39;20039;-60
2021/06/09 01:29:53;;;;;;;20.05;16.02;;;;;;;;;;1493212;39;20039;-62
2021/06/09 01:30:55;;;;;;;19.45;16.17;;;;;;;;;;1493255;39;20028;-60
2021/06/09 01:31:56;;;;;;;18.63;15.00;;;;;;;;;;1493282;39;20039;-62
2021/06/09 01:32:57;;;;;;;19.00;15.50;;;;;;;;;;1493388;39;20035;-62
2021/06/09 01:34:04;;;;;;;19.63;16.98;;;;;;;;;;1493268;39;20031;-60
2021/06/09 01:35:07;;;;;;;19.10;16.23;;;;;;;;;;1493367;39;20035;-60
2021/06/09 01:36:08;;;;;;;18.35;16.35;;;;;;;;;;1493444;39;20034;-61
2021/06/09 01:37:11;;;;;;;20.00;16.70;;;;;;;;;;1493450;39;20020;-62
2021/06/09 01:38:12;;;;;;;18.15;16.25;;;;;;;;;;1493172;39;20422;-62
2021/06/09 01:39:16;;;;;;;20.38;17.75;;;;;;;;;;1493278;39;20028;-63
2021/06/09 01:40:19;;;;;;;20.58;17.67;;;;;;;;;;1493233;39;20031;-61
2021/06/09 01:41:22;;;;;;;17.75;15.38;;;;;;;;;;1493212;39;20043;-62
2021/06/09 01:42:24;;;;;;;18.13;16.15;;;;;;;;;;1493183;39;20032;-61
2021/06/09 01:43:25;;;;;;;18.15;16.25;;;;;;;;;;1493242;39;20386;-62
2021/06/09 01:44:26;;;;;;;17.67;15.18;;;;;;;;;;1493386;39;20024;-62
2021/06/09 01:45:30;;;;;;;21.48;17.02;;;;;;;;;;1493381;39;20036;-60
2021/06/09 01:46:31;;;;;;;19.33;16.23;;;;;;;;;;1493202;39;20040;-60
2021/06/09 01:47:33;;;;;;;18.30;16.17;;;;;;;;;;1493195;39;20028;-62
2021/06/09 01:48:34;;;;;;;18.55;16.23;;;;;;;;;;1493284;39;20043;-61
2021/06/09 01:49:35;;;;;;;18.38;16.48;;;;;;;;;;1493235;39;20294;-62
2021/06/09 01:50:38;;;;;;;18.65;16.42;;;;;;;;;;1493198;39;20027;-62
2021/06/09 01:51:39;;;;;;;17.95;16.08;;;;;;;;;;1493169;39;20039;-62
2021/06/09 01:52:44;;;;;;;18.40;15.80;;;;;;;;;;1493196;39;20507;-60
2021/06/09 01:53:46;;;;;;;18.92;16.92;;;;;;;;;;1493277;39;20035;-62
2021/06/09 01:54:48;;;;;;;19.85;16.30;;;;;;;;;;1493153;39;20038;-61
2021/06/09 01:55:49;;;;;;;18.42;16.42;;;;;;;;;;1493158;39;20024;-60
2021/06/09 01:56:51;;;;;;;19.45;15.93;;;;;;;;;;1493205;39;20072;-62
2021/06/09 01:57:52;;;;;;;20.73;16.73;;;;;;;;;;1493335;39;20024;-62
2021/06/09 01:58:53;;;;;;;20.35;17.58;;;;;;;;;;1493115;39;20032;-60
2021/06/09 01:59:54;;;;;;;19.75;16.98;;;;;;;;;;1492566;39;20028;-61
2021/06/09 02:00:56;;;;;;;20.60;17.55;;;;;;;;;;1492863;39;20034;-61
2021/06/09 02:01:57;;;;;;;18.65;16.65;;;;;;;;;;1493369;39;20113;-60
2021/06/09 02:02:59;;;;;;;18.88;16.08;;;;;;;;;;1493368;39;20024;-62
2021/06/09 02:04:01;;;;;;;19.30;16.70;;;;;;;;;;1493376;39;20023;-60
2021/06/09 02:05:03;;;;;;;22.50;17.92;;;;;;;;;;1493393;39;20032;-62
2021/06/09 02:06:04;;;;;;;18.40;16.15;;;;;;;;;;1493244;39;20082;-61
2021/06/09 02:07:06;;;;;;;20.25;16.83;;;;;;;;;;1493113;39;20035;-62
2021/06/09 02:08:10;;;;;;;21.90;17.30;;;;;;;;;;1493082;39;20472;-61
2021/06/09 02:09:12;;;;;;;20.50;17.00;;;;;;;;;;1493286;39;20112;-60
2021/06/09 02:10:16;;;;;;;24.77;17.55;;;;;;;;;;1493177;39;20027;-60
2021/06/09 02:11:17;;;;;;;22.45;16.80;;;;;;;;;;1493140;39;20028;-62
2021/06/09 02:12:20;;;;;;;21.35;17.02;;;;;;;;;;1493306;39;20028;-62
2021/06/09 02:13:23;;;;;;;21.40;16.52;;;;;;;;;;1493108;39;20027;-60
2021/06/09 02:14:24;;;;;;;20.00;16.98;;;;;;;;;;1493156;39;20063;-61
2021/06/09 02:15:25;;;;;;;20.67;17.05;;;;;;;;;;1493067;39;20295;-60
2021/06/09 02:16:33;;;;;;;20.83;16.67;;;;;;;;;;1493133;39;20108;-62
2021/06/09 02:17:35;;;;;;;20.35;15.18;;;;;;;;;;1493367;39;20071;-60
2021/06/09 02:18:38;;;;;;;18.70;15.65;;;;;;;;;;1493096;39;20078;-60
2021/06/09 02:19:41;;;;;;;19.45;15.05;;;;;;;;;;1493289;39;20036;-62
2021/06/09 02:20:45;;;;;;;18.23;15.82;;;;;;;;;;1493135;39;20024;-62
2021/06/09 02:21:47;;;;;;;22.70;15.93;;;;;;;;;;1493089;39;20111;-62
2021/06/09 02:22:47;;;;;;;19.55;16.25;;;;;;;;;;1493137;39;20089;-60
2021/06/09 02:23:50;;;;;;;21.55;16.77;;;;;;;;;;1493361;39;20036;-62
2021/06/09 02:24:51;;;;;;;22.17;16.38;;;;;;;;;;1493070;39;20383;-62
2021/06/09 02:25:57;;;;;;;19.45;16.08;;;;;;;;;;1493091;39;20050;-61
2021/06/09 02:26:58;;;;;;;19.00;15.73;;;;;;;;;;1493272;39;20028;-62
2021/06/09 02:28:00;;;;;;;16.85;14.70;;;;;;;;;;1493077;39;20038;-60
2021/06/09 02:29:01;;;;;;;21.58;16.25;;;;;;;;;;1493045;39;20028;-61
2021/06/09 02:30:05;;;;;;;19.73;16.85;;;;;;;;;;1493285;39;20028;-61
2021/06/09 02:31:06;;;;;;;18.65;16.30;;;;;;;;;;1493282;39;20032;-60
2021/06/09 02:32:08;;;;;;;19.98;16.90;;;;;;;;;;1493252;39;20280;-60
2021/06/09 02:33:10;;;;;;;19.60;16.42;;;;;;;;;;1493079;39;20109;-62
2021/06/09 02:34:14;;;;;;;22.15;16.42;;;;;;;;;;1493026;39;20395;-62
2021/06/09 02:35:16;;;;;;;18.40;16.05;;;;;;;;;;1492994;39;20023;-62
2021/06/09 02:36:17;;;;;;;19.50;17.08;;;;;;;;;;1493054;39;20053;-62
2021/06/09 02:37:21;;;;;;;19.65;16.60;;;;;;;;;;1493235;39;20039;-62
2021/06/09 02:38:23;;;;;;;18.13;16.10;;;;;;;;;;1492992;39;20089;-61
2021/06/09 02:39:25;;;;;;;19.42;16.13;;;;;;;;;;1493063;39;20039;-60
2021/06/09 02:40:27;;;;;;;19.58;16.60;;;;;;;;;;1493284;39;20115;-61
2021/06/09 02:41:27;;;;;;;21.00;17.10;;;;;;;;;;1493272;39;20028;-62
2021/06/09 02:42:29;;;;;;;20.33;17.88;;;;;;;;;;1493113;39;20024;-60
2021/06/09 02:43:31;;;;;;;18.08;15.95;;;;;;;;;;1493028;39;20024;-60
2021/06/09 02:44:33;;;;;;;19.25;16.52;;;;;;;;;;1493074;39;20351;-60
2021/06/09 02:45:34;;;;;;;19.27;16.35;;;;;;;;;;1493205;39;20028;-61
2021/06/09 02:46:39;;;;;;;17.80;15.90;;;;;;;;;;1493227;39;20028;-60
2021/06/09 02:47:46;;;;;;;20.33;15.45;;;;;;;;;;1493046;39;20380;-60
2021/06/09 02:48:51;;;;;;;18.60;16.13;;;;;;;;;;1493240;39;20046;-61
2021/06/09 02:49:56;;;;;;;19.23;16.38;;;;;;;;;;1493095;39;20028;-60
2021/06/09 02:51:00;;;;;;;17.88;15.98;;;;;;;;;;1493238;39;20039;-60
2021/06/09 02:52:07;;;;;;;19.20;15.32;;;;;;;;;;1493020;39;20387;-62
2021/06/09 02:53:14;;;;;;;20.08;17.63;;;;;;;;;;1493304;39;20032;-62
2021/06/09 02:54:21;;;;;;;18.70;15.73;;;;;;;;;;1493213;39;20039;-62
2021/06/09 02:55:35;;;;;;;20.23;16.50;;;;;;;;;;1493202;39;20032;-62
2021/06/09 02:56:46;;;;;;;20.70;17.45;;;;;;;;;;1493267;39;20020;-60
2021/06/09 02:57:56;;;;;;;19.73;15.70;;;;;;;;;;1493239;39;20035;-62
2021/06/09 02:59:03;;;;;;;19.48;16.42;;;;;;;;;;1493007;39;20299;-61
2021/06/09 03:00:08;;;;;;;18.70;16.00;;;;;;;;;;1493181;39;20039;-61
2021/06/09 03:01:14;;;;;;;18.60;16.13;;;;;;;;;;1493159;39;20030;-60
2021/06/09 03:02:24;;;;;;;20.52;17.55;;;;;;;;;;1493227;39;20044;-60
2021/06/09 03:03:34;;;;;;;21.30;17.92;;;;;;;;;;1493012;39;20032;-62
2021/06/09 03:04:43;;;;;;;17.80;15.77;;;;;;;;;;1493156;39;20042;-62
2021/06/09 03:05:54;;;;;;;19.83;16.20;;;;;;;;;;1493019;39;20050;-60
2021/06/09 03:07:01;;;;;;;21.75;16.48;;;;;;;;;;1493207;39;20113;-60
2021/06/09 03:08:09;;;;;;;20.02;16.73;;;;;;;;;;1493240;39;20031;-60
2021/06/09 03:09:18;;;;;;;21.85;16.60;;;;;;;;;;1493190;39;20084;-61
2021/06/09 03:10:26;;;;;;;22.02;16.33;;;;;;;;;;1493240;39;20032;-62
2021/06/09 03:11:35;;;;;;;20.60;15.32;;;;;;;;;;1492667;39;20028;-62
2021/06/09 03:12:45;;;;;;;20.95;16.50;;;;;;;;;;1493171;39;20034;-60
2021/06/09 03:13:56;;;;;;;18.40;15.00;;;;;;;;;;1492987;39;20028;-62
2021/06/09 03:15:11;;;;;;;;;;;;;;;;;;1493557;39;20054;-60
2021/06/09 03:16:17;;;;;;;19.27;15.82;;;;;;;;;;1493105;39;19931;-61
2021/06/09 03:17:23;;;;;;;18.95;15.75;;;;;;;;;;1492992;39;20388;-62
2021/06/09 03:18:28;;;;;;;17.77;15.23;;;;;;;;;;1492896;39;20036;-62
2021/06/09 03:19:38;;;;;;;18.35;15.43;;;;;;;;;;1493097;39;20035;-62
2021/06/09 03:20:50;;;;;;;21.13;17.13;;;;;;;;;;1492980;39;20315;-61
2021/06/09 03:21:56;;;;;;;19.77;16.25;;;;;;;;;;1493126;39;20019;-62
2021/06/09 03:23:03;;;;;;;20.30;16.50;;;;;;;;;;1493092;39;20035;-61
2021/06/09 03:24:10;;;;;;;18.52;16.25;;;;;;;;;;1493223;39;20028;-62
2021/06/09 03:25:18;;;;;;;18.58;15.50;;;;;;;;;;1492985;39;20047;-62
2021/06/09 03:26:26;;;;;;;19.88;15.98;;;;;;;;;;1493132;39;20024;-62
2021/06/09 03:27:33;;;;;;;19.77;16.33;;;;;;;;;;1492945;39;20040;-60
2021/06/09 03:28:43;;;;;;;19.65;16.58;;;;;;;;;;1493130;39;20036;-60
2021/06/09 03:29:48;;;;;;;22.27;17.30;;;;;;;;;;1492920;39;20391;-62
2021/06/09 03:30:53;;;;;;;19.15;16.88;;;;;;;;;;1493001;39;20057;-60
2021/06/09 03:31:59;;;;;;;20.63;15.82;;;;;;;;;;1493111;39;20149;-61
2021/06/09 03:33:02;;;;;;;19.30;16.02;;;;;;;;;;1493217;39;20024;-60
2021/06/09 03:34:07;;;;;;;21.38;17.35;;;;;;;;;;1492569;39;20078;-62
2021/06/09 03:35:10;;;;;;;20.58;17.63;;;;;;;;;;1492651;39;20028;-62
2021/06/09 03:36:15;;;;;;;21.45;17.00;;;;;;;;;;1492853;39;20035;-62
2021/06/09 03:37:18;;;;;;;23.67;16.92;;;;;;;;;;1493202;39;20023;-60
2021/06/09 03:38:26;;;;;;;18.52;16.52;;;;;;;;;;1493040;39;20024;-60
2021/06/09 03:39:29;;;;;;;21.45;16.23;;;;;;;;;;1492925;39;20135;-60
2021/06/09 03:40:34;;;;;;;21.38;17.30;;;;;;;;;;1492855;39;20032;-60
2021/06/09 03:41:37;;;;;;;20.75;15.35;;;;;;;;;;1492933;39;20387;-60
2021/06/09 03:42:45;;;;;;;19.63;16.83;;;;;;;;;;1493012;39;20024;-62
2021/06/09 03:43:50;;;;;;;20.88;16.95;;;;;;;;;;1492916;39;20027;-62
2021/06/09 03:44:55;;;;;;;20.58;15.20;;;;;;;;;;1493103;39;20044;-60
2021/06/09 03:45:57;;;;;;;19.88;16.25;;;;;;;;;;1493163;39;20034;-62
2021/06/09 03:46:59;;;;;;;23.45;17.27;;;;;;;;;;1493045;39;20040;-62
2021/06/09 03:48:01;;;;;;;18.13;15.88;;;;;;;;;;1492878;39;20031;-62
2021/06/09 03:49:06;;;;;;;19.42;15.48;;;;;;;;;;1493108;39;20039;-62
2021/06/09 03:50:09;;;;;;;21.90;16.13;;;;;;;;;;1493082;39;20382;-62
2021/06/09 03:51:12;;;;;;;17.52;15.20;;;;;;;;;;1492859;39;20039;-60
2021/06/09 03:52:13;;;;;;;19.08;15.27;;;;;;;;;;1493042;39;20028;-62
2021/06/09 03:53:15;;;;;;;17.98;15.30;;;;;;;;;;1493061;39;20039;-62
2021/06/09 03:54:16;;;;;;;21.10;15.68;;;;;;;;;;1492876;39;20031;-62
2021/06/09 03:55:22;;;;;;;19.40;16.10;;;;;;;;;;1493120;39;20035;-61
2021/06/09 03:56:26;;;;;;;17.42;15.57;;;;;;;;;;1492839;39;20429;-62
2021/06/09 03:57:31;;;;;;;22.83;17.15;;;;;;;;;;1492882;39;20024;-62
2021/06/09 03:58:34;;;;;;;19.33;16.70;;;;;;;;;;1492820;39;20054;-60
2021/06/09 03:59:36;;;;;;;19.23;16.23;;;;;;;;;;1493104;39;20106;-60
2021/06/09 04:00:38;;;;;;;17.92;15.57;;;;;;;;;;1493062;39;20024;-60
2021/06/09 04:01:41;;;;;;;18.08;16.17;;;;;;;;;;1492818;39;20479;-62
2021/06/09 04:02:43;;;;;;;20.60;15.00;;;;;;;;;;1492853;39;20031;-62
2021/06/09 04:03:47;;;;;;;17.88;15.48;;;;;;;;;;1492852;39;20326;-61
2021/06/09 04:04:52;;;;;;;20.80;16.20;;;;;;;;;;1493010;39;20127;-61
2021/06/09 04:05:57;;;;;;;17.85;15.93;;;;;;;;;;1493119;39;20028;-61
2021/06/09 04:07:01;;;;;;;18.05;15.27;;;;;;;;;;1493027;39;20031;-61
2021/06/09 04:08:02;;;;;;;24.95;16.48;;;;;;;;;;1492973;39;20104;-60
2021/06/09 04:09:04;;;;;;;18.85;16.30;;;;;;;;;;1493035;39;20038;-60
2021/06/09 04:10:06;;;;;;;20.10;15.88;;;;;;;;;;1493004;39;20028;-62
2021/06/09 04:11:13;;;;;;;18.65;15.90;;;;;;;;;;1493009;39;20020;-61
2021/06/09 04:12:15;;;;;;;18.05;15.50;;;;;;;;;;1493049;39;20072;-61
2021/06/09 04:13:16;;;;;;;17.85;15.65;;;;;;;;;;1492824;39;20074;-62
2021/06/09 04:14:23;;;;;;;17.90;15.20;;;;;;;;;;1493045;39;20036;-60
2021/06/09 04:15:25;;;;;;;19.00;15.40;;;;;;;;;;1492816;39;20398;-61
2021/06/09 04:16:29;;;;;;;18.08;15.73;;;;;;;;;;1492772;39;20038;-62
2021/06/09 04:17:33;;;;;;;21.38;16.52;;;;;;;;;;1492975;39;20028;-62
2021/06/09 04:18:37;;;;;;;20.38;16.55;;;;;;;;;;1492770;39;20283;-60
2021/06/09 04:19:42;;;;;;;19.88;15.77;;;;;;;;;;1492822;39;20031;-60
2021/06/09 04:20:44;;;;;;;20.23;16.23;;;;;;;;;;1492993;39;20032;-62
2021/06/09 04:21:45;;;;;;;19.67;16.90;;;;;;;;;;1492822;39;20028;-60
2021/06/09 04:22:46;;;;;;;20.30;16.73;;;;;;;;;;1492691;39;20039;-62
2021/06/09 04:23:47;;;;;;;18.63;16.17;;;;;;;;;;1492424;39;20019;-60
2021/06/09 04:24:49;;;;;;;20.33;17.15;;;;;;;;;;1492971;39;20402;-60
2021/06/09 04:25:49;;;;;;;19.20;16.20;;;;;;;;;;1492821;39;20035;-60
2021/06/09 04:26:53;;;;;;;21.02;16.48;;;;;;;;;;1492725;39;20035;-60
2021/06/09 04:27:54;;;;;;;19.33;16.35;;;;;;;;;;1492811;39;20055;-62
2021/06/09 04:28:57;;;;;;;18.00;16.05;;;;;;;;;;1492716;39;20395;-61
2021/06/09 04:30:00;;;;;;;18.15;16.20;;;;;;;;;;1492943;39;20028;-62
2021/06/09 04:31:01;;;;;;;19.17;15.48;;;;;;;;;;1492911;39;20150;-62
2021/06/09 04:32:05;;;;;;;19.17;15.40;;;;;;;;;;1492797;39;20058;-60
2021/06/09 04:33:10;;;;;;;20.33;16.17;;;;;;;;;;1492969;39;20035;-60
2021/06/09 04:34:11;;;;;;;17.63;15.18;;;;;;;;;;1492847;39;20043;-62
2021/06/09 04:35:13;;;;;;;21.77;16.30;;;;;;;;;;1492697;39;20024;-60
2021/06/09 04:36:15;;;;;;;18.27;15.68;;;;;;;;;;1492649;39;20383;-61
2021/06/09 04:37:19;;;;;;;19.90;16.40;;;;;;;;;;1492802;39;20040;-60
2021/06/09 04:38:20;;;;;;;19.23;15.98;;;;;;;;;;1492694;39;20035;-60
2021/06/09 04:39:22;;;;;;;19.73;15.85;;;;;;;;;;1492715;39;20024;-60
2021/06/09 04:40:25;;;;;;;17.25;14.80;;;;;;;;;;1492879;39;20034;-60
2021/06/09 04:41:27;;;;;;;17.88;15.05;;;;;;;;;;1492907;39;20034;-60
2021/06/09 04:42:28;;;;;;;19.75;14.75;;;;;;;;;;1492698;39;20111;-61
2021/06/09 04:43:29;;;;;;;20.80;15.82;;;;;;;;;;1492757;39;20119;-60
2021/06/09 04:44:30;;;;;;;20.40;15.55;;;;;;;;;;1492723;39;20054;-62
2021/06/09 04:45:33;;;;;;;19.63;15.65;;;;;;;;;;1492769;39;20034;-60
2021/06/09 04:46:34;;;;;;;18.35;15.32;;;;;;;;;;1492721;39;20032;-62
2021/06/09 04:47:36;;;;;;;20.98;15.32;;;;;;;;;;1492680;39;20040;-62
2021/06/09 04:48:36;;;;;;;16.88;14.98;;;;;;;;;;1492506;39;20039;-60
2021/06/09 04:49:40;;;;;;;18.38;15.00;;;;;;;;;;1492739;39;20028;-60
2021/06/09 04:50:42;;;;;;;19.92;15.43;;;;;;;;;;1492716;39;20028;-61
2021/06/09 04:51:43;;;;;;;19.30;15.30;;;;;;;;;;1492825;39;20032;-60
2021/06/09 04:52:44;;;;;;;18.73;15.95;;;;;;;;;;1492666;39;20028;-60
2021/06/09 04:53:45;;;;;;;18.70;16.30;;;;;;;;;;1492675;39;20387;-60
2021/06/09 04:54:46;;;;;;;20.23;16.52;;;;;;;;;;1492885;39;20039;-60
2021/06/09 04:55:50;;;;;;;19.67;16.83;;;;;;;;;;1492625;39;20050;-62
2021/06/09 04:56:51;;;;;;;20.55;16.58;;;;;;;;;;1492723;39;20383;-62
2021/06/09 04:57:52;;;;;;;22.85;17.85;;;;;;;;;;1492623;39;20032;-61
2021/06/09 04:58:55;;;;;;;19.13;16.88;;;;;;;;;;1492620;39;20038;-60
2021/06/09 04:59:56;;;;;;;18.50;16.48;;;;;;;;;;1492741;39;20032;-62
2021/06/09 05:00:59;;;;;;;18.95;15.68;;;;;;;;;;1492660;39;20027;-62
2021/06/09 05:02:00;;;;;;;16.48;14.68;;;;;;;;;;1492879;39;20028;-60
2021/06/09 05:03:02;;;;;;;18.58;15.35;;;;;;;;;;1492865;39;20379;-62
2021/06/09 05:04:03;;;;;;;20.23;15.88;;;;;;;;;;1492838;39;20032;-61
2021/06/09 05:05:05;;;;;;;19.27;14.57;;;;;;;;;;1492787;39;20390;-61
2021/06/09 05:06:06;;;;;;;18.88;15.38;;;;;;;;;;1492855;39;20024;-62
2021/06/09 05:07:07;;;;;;;20.10;16.17;;;;;;;;;;1492902;39;20028;-62
2021/06/09 05:08:09;;;;;;;20.30;15.77;;;;;;;;;;1492636;39;20056;-61
2021/06/09 05:09:11;;;;;;;19.30;17.15;;;;;;;;;;1492878;39;20028;-61
2021/06/09 05:10:12;;;;;;;17.15;14.57;;;;;;;;;;1492611;39;20028;-62
2021/06/09 05:11:19;;;;;;;16.95;15.10;;;;;;;;;;1492862;39;20032;-62
2021/06/09 05:12:24;;;;;;;17.92;14.75;;;;;;;;;;1492749;39;20272;-62
2021/06/09 05:13:29;;;;;;;20.13;17.58;;;;;;;;;;1492800;39;20026;-62
2021/06/09 05:14:35;;;;;;;19.77;17.10;;;;;;;;;;1492902;39;20032;-60
2021/06/09 05:15:39;;;;;;;21.75;17.55;;;;;;;;;;1492588;39;20032;-61
2021/06/09 05:16:43;;;;;;;20.40;17.20;;;;;;;;;;1492900;39;20056;-60
2021/06/09 05:17:46;;;;;;;21.13;16.73;;;;;;;;;;1492766;39;20024;-62
2021/06/09 05:18:52;;;;;;;22.48;16.85;;;;;;;;;;1492755;39;20051;-60
2021/06/09 05:19:56;;;;;;;17.58;15.13;;;;;;;;;;1492656;39;20034;-62
2021/06/09 05:20:57;;;;;;;20.30;16.52;;;;;;;;;;1492782;39;20111;-62
2021/06/09 05:22:04;;;;;;;18.98;16.98;;;;;;;;;;1492801;39;20036;-62
2021/06/09 05:23:08;;;;;;;24.88;20.45;;;;;;;;;;1492813;39;20024;-62
2021/06/09 05:24:11;;;;;;;25.95;20.98;;;;;;;;;;1492809;39;20044;-62
2021/06/09 05:25:14;;;;;;;23.15;20.00;;;;;;;;;;1492759;39;20036;-62
2021/06/09 05:26:16;;;;;;;24.02;19.92;;;;;;;;;;1492780;39;20042;-61
2021/06/09 05:27:22;;;;;;;29.88;21.30;;;;;;;;;;1492749;39;20031;-60
2021/06/09 05:28:27;;;;;;;23.20;20.67;;;;;;;;;;1492566;39;20075;-61
2021/06/09 05:29:29;;;;;;;25.13;19.70;;;;;;;;;;1492653;39;20153;-62
2021/06/09 05:30:31;;;;;;;27.75;21.67;;;;;;;;;;1492804;39;20062;-62
2021/06/09 05:31:35;;;;;;;24.15;20.88;;;;;;;;;;1492805;39;20028;-60
2021/06/09 05:32:38;;;;;;;26.42;21.30;;;;;;;;;;1492538;39;20040;-61
2021/06/09 05:33:42;;;;;;;23.58;20.00;;;;;;;;;;1492761;39;20028;-62
2021/06/09 05:34:45;;;;;;;22.95;19.98;;;;;;;;;;1492885;39;20036;-62
2021/06/09 05:35:46;;;;;;;24.63;20.92;;;;;;;;;;1493232;39;20035;-61
2021/06/09 05:36:48;;;;;;;23.30;20.80;;;;;;;;;;1493374;39;20064;-62
2021/06/09 05:37:50;;;;;;;25.42;20.27;;;;;;;;;;1493203;39;20383;-62
2021/06/09 05:38:51;;;;;;;22.98;20.08;;;;;;;;;;1493165;39;20061;-61
2021/06/09 05:39:58;;;;;;;25.13;20.90;;;;;;;;;;1493206;39;20028;-62
2021/06/09 05:41:00;;;;;;;25.52;20.27;;;;;;;;;;1493296;39;20039;-62
2021/06/09 05:42:01;;;;;;;24.85;20.13;;;;;;;;;;1493179;39;20035;-62
2021/06/09 05:43:02;;;;;;;24.70;20.25;;;;;;;;;;1493181;39;20031;-62
2021/06/09 05:44:05;;;;;;;26.25;20.83;;;;;;;;;;1493285;39;20025;-62
2021/06/09 05:45:07;;;;;;;23.33;20.75;;;;;;;;;;1493370;39;20047;-62
2021/06/09 05:46:09;;;;;;;23.92;20.98;;;;;;;;;;1493179;39;20024;-62
2021/06/09 05:47:11;;;;;;;23.85;20.38;;;;;;;;;;1493197;39;20028;-62
2021/06/09 05:48:13;;;;;;;25.00;21.50;;;;;;;;;;1493331;39;20031;-61
2021/06/09 05:49:22;;;;;;;24.77;20.10;;;;;;;;;;1492646;39;20075;-62
2021/06/09 05:50:27;;;;;;;23.70;21.10;;;;;;;;;;1492994;39;20188;-62
2021/06/09 05:51:29;;;;;;;22.58;20.05;;;;;;;;;;1493191;39;20383;-62
2021/06/09 05:52:30;;;;;;;24.48;20.88;;;;;;;;;;1493373;39;20031;-62
2021/06/09 05:53:31;;;;;;;23.52;19.63;;;;;;;;;;1493158;39;20307;-62
2021/06/09 05:54:33;;;;;;;23.95;20.25;;;;;;;;;;1493164;39;20060;-62
2021/06/09 05:55:35;;;;;;;24.27;19.65;;;;;;;;;;1493134;39;20039;-62
2021/06/09 05:56:36;;;;;;;22.67;19.30;;;;;;;;;;1493181;39;20473;-62
2021/06/09 05:57:38;;;;;;;22.30;19.92;;;;;;;;;;1493190;39;20028;-62
2021/06/09 05:58:39;;;;;;;24.67;20.02;;;;;;;;;;1493348;39;20035;-62
2021/06/09 05:59:41;;;;;;;23.85;20.50;;;;;;;;;;1493172;39;20085;-62
2021/06/09 06:00:43;;;;;;;22.35;20.02;;;;;;;;;;1493306;39;20035;-61
2021/06/09 06:01:45;;;;;;;25.65;20.35;;;;;;;;;;1493330;39;20032;-62
2021/06/09 06:02:46;;;;;;;22.63;19.50;;;;;;;;;;1493117;39;20036;-62
2021/06/09 06:03:49;;;;;;;25.55;19.92;;;;;;;;;;1493140;39;20127;-62
2021/06/09 06:04:51;;;;;;;24.08;20.65;;;;;;;;;;1493377;39;20039;-62
2021/06/09 06:05:56;;;;;;;24.33;20.40;;;;;;;;;;1493129;39;20401;-62
2021/06/09 06:06:57;;;;;;;23.80;21.23;;;;;;;;;;1493174;39;20089;-62
2021/06/09 06:07:59;;;;;;;24.88;19.92;;;;;;;;;;1493180;39;20474;-62